createdAt,value
2023-05-21T00:02:05.577Z,11.24
2023-05-21T00:04:33.928Z,11.18
2023-05-21T00:07:01.006Z,11.11
2023-05-21T00:09:27.698Z,10.98
2023-05-21T00:11:55.708Z,10.84
2023-05-21T00:14:22.399Z,10.66
2023-05-21T00:16:50.289Z,10.59
2023-05-21T00:19:18.723Z,10.46
2023-05-21T00:21:46.082Z,10.39
2023-05-21T00:24:12.853Z,10.42
2023-05-21T00:26:39.530Z,10.29
2023-05-21T00:29:06.245Z,10.20
2023-05-21T00:31:34.989Z,10.16
2023-05-21T00:34:01.687Z,10.01
2023-05-21T00:36:29.548Z,9.89
2023-05-21T00:38:56.229Z,9.70
2023-05-21T00:41:23.027Z,9.62
2023-05-21T00:43:50.304Z,9.59
2023-05-21T00:46:19.875Z,9.61
2023-05-21T00:48:48.157Z,9.61
2023-05-21T00:51:15.938Z,9.58
2023-05-21T00:53:44.576Z,9.45
2023-05-21T00:56:11.460Z,9.29
2023-05-21T00:58:40.240Z,9.12
2023-05-21T01:01:07.213Z,9.06
2023-05-21T01:03:38.674Z,9.02
2023-05-21T01:06:06.364Z,8.98
2023-05-21T01:08:37.727Z,8.90
2023-05-21T01:11:08.122Z,8.83
2023-05-21T01:13:39.020Z,8.78
2023-05-21T01:16:08.039Z,8.75
2023-05-21T01:18:38.041Z,8.62
2023-05-21T01:21:07.549Z,8.51
2023-05-21T01:23:34.429Z,8.43
2023-05-21T01:26:01.135Z,8.44
2023-05-21T01:28:29.833Z,8.43
2023-05-21T01:31:06.582Z,8.38
2023-05-21T01:33:41.815Z,8.32
2023-05-21T01:36:28.325Z,8.24
2023-05-21T01:39:07.483Z,8.11
2023-05-21T01:41:38.560Z,8.02
2023-05-21T01:44:07.058Z,8.00
2023-05-21T01:46:37.790Z,7.98
2023-05-21T01:49:06.379Z,7.87
2023-05-21T01:51:34.272Z,7.89
2023-05-21T01:54:01.693Z,7.85
2023-05-21T01:56:28.688Z,7.92
2023-05-21T01:58:59.882Z,7.83
2023-05-21T02:01:30.492Z,7.74
2023-05-21T02:03:58.145Z,7.69
2023-05-21T02:06:25.058Z,7.58
2023-05-21T02:08:53.062Z,7.54
2023-05-21T02:11:19.744Z,7.58
2023-05-21T02:13:46.527Z,7.52
2023-05-21T02:16:14.796Z,7.50
2023-05-21T02:18:46.501Z,7.50
2023-05-21T02:21:13.288Z,7.36
2023-05-21T02:23:40.021Z,7.27
2023-05-21T02:26:08.040Z,7.30
2023-05-21T02:28:36.303Z,7.25
2023-05-21T02:31:03.129Z,7.20
2023-05-21T02:33:29.815Z,7.22
2023-05-21T02:35:56.535Z,7.26
2023-05-21T02:38:25.851Z,7.25
2023-05-21T02:40:54.323Z,7.18
2023-05-21T02:43:22.584Z,7.12
2023-05-21T02:45:50.315Z,7.10
2023-05-21T02:48:18.500Z,7.04
2023-05-21T02:50:45.154Z,7.00
2023-05-21T02:53:13.132Z,7.00
2023-05-21T02:55:40.889Z,7.00
2023-05-21T02:58:09.324Z,6.96
2023-05-21T03:00:37.212Z,6.91
2023-05-21T03:03:04.034Z,6.94
2023-05-21T03:05:30.899Z,6.93
2023-05-21T03:07:57.576Z,6.91
2023-05-21T03:10:24.335Z,6.86
2023-05-21T03:12:51.314Z,6.84
2023-05-21T03:15:18.338Z,6.83
2023-05-21T03:17:46.480Z,6.84
2023-05-21T03:20:16.596Z,6.85
2023-05-21T03:22:46.090Z,6.88
2023-05-21T03:25:14.029Z,6.95
2023-05-21T03:27:41.110Z,6.97
2023-05-21T03:30:08.282Z,6.93
2023-05-21T03:32:38.041Z,6.95
2023-05-21T03:35:05.319Z,7.03
2023-05-21T03:37:33.074Z,7.08
2023-05-21T03:39:59.745Z,7.11
2023-05-21T03:42:27.605Z,7.14
2023-05-21T03:44:54.258Z,7.19
2023-05-21T03:47:21.009Z,7.15
2023-05-21T03:49:47.785Z,7.20
2023-05-21T03:52:14.494Z,7.25
2023-05-21T03:54:41.242Z,7.25
2023-05-21T03:57:10.030Z,7.34
2023-05-21T03:59:37.151Z,7.43
2023-05-21T04:02:03.962Z,7.45
2023-05-21T04:04:30.784Z,7.49
2023-05-21T04:06:57.431Z,7.64
2023-05-21T04:09:25.416Z,7.70
2023-05-21T04:11:53.380Z,7.77
2023-05-21T04:14:20.030Z,7.84
2023-05-21T04:16:50.372Z,7.91
2023-05-21T04:19:17.115Z,8.00
2023-05-21T04:21:46.545Z,8.11
2023-05-21T04:24:13.208Z,8.17
2023-05-21T04:26:43.533Z,8.21
2023-05-21T04:29:10.299Z,8.30
2023-05-21T04:31:37.279Z,8.41
2023-05-21T04:34:04.298Z,8.51
2023-05-21T04:36:31.022Z,8.63
2023-05-21T04:38:58.989Z,8.68
2023-05-21T04:41:25.639Z,8.81
2023-05-21T04:43:56.615Z,8.90
2023-05-21T04:46:26.136Z,8.98
2023-05-21T04:48:55.158Z,9.09
2023-05-21T04:51:24.671Z,9.17
2023-05-21T04:53:51.511Z,9.24
2023-05-21T04:56:18.897Z,9.30
2023-05-21T04:58:48.034Z,9.37
2023-05-21T05:01:19.124Z,9.44
2023-05-21T05:03:46.136Z,9.54
2023-05-21T05:06:12.906Z,9.61
2023-05-21T05:08:39.597Z,9.72
2023-05-21T05:11:06.365Z,9.82
2023-05-21T05:13:34.233Z,9.93
2023-05-21T05:16:01.629Z,10.04
2023-05-21T05:18:28.335Z,10.10
2023-05-21T05:20:56.345Z,10.19
2023-05-21T05:23:23.036Z,10.29
2023-05-21T05:25:49.718Z,10.38
2023-05-21T05:28:16.456Z,10.49
2023-05-21T05:30:43.106Z,10.58
2023-05-21T05:33:09.809Z,10.67
2023-05-21T05:35:36.785Z,10.72
2023-05-21T05:38:05.102Z,10.84
2023-05-21T05:40:31.807Z,10.89
2023-05-21T05:42:58.443Z,10.97
2023-05-21T05:45:26.687Z,11.08
2023-05-21T05:47:53.406Z,11.19
2023-05-21T05:50:21.146Z,11.30
2023-05-21T05:52:47.798Z,11.38
2023-05-21T05:55:14.485Z,11.48
2023-05-21T06:00:10.478Z,11.65
2023-05-21T06:02:37.708Z,11.72
2023-05-21T06:05:06.852Z,11.81
2023-05-21T06:07:35.084Z,11.90
2023-05-21T06:10:01.728Z,12.02
2023-05-21T06:12:29.639Z,12.13
2023-05-21T06:14:56.357Z,12.24
2023-05-21T06:17:24.222Z,12.33
2023-05-21T06:19:51.012Z,12.47
2023-05-21T06:22:17.832Z,12.60
2023-05-21T06:24:44.549Z,12.76
2023-05-21T06:27:11.255Z,12.89
2023-05-21T06:29:37.965Z,12.99
2023-05-21T06:32:04.935Z,13.12
2023-05-21T06:34:32.957Z,13.23
2023-05-21T06:36:59.591Z,13.32
2023-05-21T06:39:28.612Z,13.48
2023-05-21T06:41:55.361Z,13.57
2023-05-21T06:44:23.105Z,13.65
2023-05-21T06:46:49.738Z,13.75
2023-05-21T06:49:16.619Z,13.88
2023-05-21T06:51:43.344Z,13.98
2023-05-21T06:54:10.022Z,14.04
2023-05-21T06:56:36.686Z,14.14
2023-05-21T06:59:03.746Z,14.18
2023-05-21T07:01:30.861Z,14.28
2023-05-21T07:03:57.710Z,14.39
2023-05-21T07:06:24.346Z,14.52
2023-05-21T07:08:51.763Z,14.60
2023-05-21T07:11:19.044Z,14.68
2023-05-21T07:13:45.677Z,14.78
2023-05-21T07:16:12.397Z,14.89
2023-05-21T07:18:39.164Z,14.90
2023-05-21T07:21:05.861Z,14.98
2023-05-21T07:23:33.259Z,15.06
2023-05-21T07:25:59.932Z,15.17
2023-05-21T07:28:26.643Z,15.27
2023-05-21T07:30:53.321Z,15.41
2023-05-21T07:33:20.820Z,15.50
2023-05-21T07:35:47.485Z,15.59
2023-05-21T07:38:14.534Z,15.66
2023-05-21T07:40:41.221Z,15.72
2023-05-21T07:43:09.105Z,15.73
2023-05-21T07:45:37.276Z,15.81
2023-05-21T07:48:04.345Z,15.94
2023-05-21T07:50:32.442Z,16.04
2023-05-21T07:53:00.431Z,16.09
2023-05-21T07:55:27.256Z,16.17
2023-05-21T07:57:54.372Z,16.23
2023-05-21T08:00:24.905Z,16.27
2023-05-21T08:02:52.515Z,16.35
2023-05-21T08:05:19.903Z,16.41
2023-05-21T08:07:48.512Z,16.52
2023-05-21T08:10:17.086Z,16.60
2023-05-21T08:12:45.149Z,16.68
2023-05-21T08:15:11.851Z,16.79
2023-05-21T08:17:38.596Z,16.81
2023-05-21T08:20:05.925Z,16.92
2023-05-21T08:22:32.725Z,16.96
2023-05-21T08:24:59.411Z,17.10
2023-05-21T08:27:26.050Z,17.21
2023-05-21T08:29:53.055Z,17.30
2023-05-21T08:32:20.920Z,17.36
2023-05-21T08:34:47.642Z,17.46
2023-05-21T08:37:14.314Z,17.56
2023-05-21T08:39:41.025Z,17.68
2023-05-21T08:42:37.317Z,17.75
2023-05-21T08:45:12.621Z,17.88
2023-05-21T08:47:42.379Z,17.91
2023-05-21T08:50:15.902Z,17.98
2023-05-21T08:52:42.925Z,18.04
2023-05-21T08:55:10.500Z,18.12
2023-05-21T08:57:42.321Z,18.24
2023-05-21T09:00:09.736Z,18.28
2023-05-21T09:02:40.677Z,18.33
2023-05-21T09:05:09.558Z,18.37
2023-05-21T09:08:05.645Z,18.42
2023-05-21T09:10:52.659Z,18.46
2023-05-21T09:13:21.711Z,18.51
2023-05-21T09:15:49.194Z,18.60
2023-05-21T09:18:15.943Z,18.72
2023-05-21T09:20:45.437Z,18.82
2023-05-21T09:23:16.742Z,18.87
2023-05-21T09:25:47.988Z,18.98
2023-05-21T09:28:15.864Z,19.06
2023-05-21T09:30:52.140Z,19.11
2023-05-21T09:33:26.471Z,19.17
2023-05-21T09:35:54.730Z,19.25
2023-05-21T09:38:26.132Z,19.33
2023-05-21T09:40:56.621Z,19.40
2023-05-21T09:43:23.387Z,19.44
2023-05-21T09:45:55.067Z,19.34
2023-05-21T09:48:34.744Z,19.40
2023-05-21T09:51:16.610Z,19.43
2023-05-21T09:53:55.318Z,19.48
2023-05-21T09:56:28.061Z,19.53
2023-05-21T09:58:57.012Z,19.59
2023-05-21T10:01:24.933Z,19.62
2023-05-21T10:03:58.628Z,19.69
2023-05-21T10:06:33.702Z,19.73
2023-05-21T10:09:05.769Z,19.78
2023-05-21T10:11:34.682Z,19.79
2023-05-21T10:14:05.912Z,19.76
2023-05-21T10:16:34.222Z,19.78
2023-05-21T10:19:02.417Z,19.81
2023-05-21T10:21:31.193Z,19.81
2023-05-21T10:23:58.441Z,19.84
2023-05-21T10:26:26.428Z,19.92
2023-05-21T10:28:56.329Z,19.85
2023-05-21T10:31:24.246Z,19.81
2023-05-21T10:33:53.291Z,19.79
2023-05-21T10:36:21.905Z,19.81
2023-05-21T10:38:48.755Z,19.81
2023-05-21T10:41:20.424Z,19.86
2023-05-21T10:43:50.025Z,19.88
2023-05-21T10:46:42.777Z,19.92
2023-05-21T10:49:30.756Z,19.99
2023-05-21T10:52:19.646Z,20.08
2023-05-21T10:55:04.446Z,20.09
2023-05-21T10:57:52.695Z,20.10
2023-05-21T11:00:21.219Z,20.08
2023-05-21T11:02:53.129Z,20.08
2023-05-21T11:05:40.609Z,20.15
2023-05-21T11:08:22.624Z,20.21
2023-05-21T11:10:59.138Z,20.21
2023-05-21T11:13:27.424Z,20.32
2023-05-21T11:16:01.400Z,20.33
2023-05-21T11:18:33.917Z,20.26
2023-05-21T11:21:11.682Z,20.33
2023-05-21T11:23:59.637Z,20.40
2023-05-21T11:26:30.207Z,20.37
2023-05-21T11:29:09.965Z,20.32
2023-05-21T11:31:39.625Z,20.43
2023-05-21T11:34:30.939Z,20.43
2023-05-21T11:37:20.155Z,20.41
2023-05-21T11:39:48.113Z,20.49
2023-05-21T11:42:27.750Z,20.58
2023-05-21T11:44:57.967Z,20.59
2023-05-21T11:47:26.439Z,20.60
2023-05-21T11:49:53.814Z,20.61
2023-05-21T11:52:20.834Z,20.52
2023-05-21T11:54:54.103Z,20.51
2023-05-21T11:57:22.337Z,20.60
2023-05-21T11:59:53.288Z,20.67
2023-05-21T12:02:22.960Z,20.68
2023-05-21T12:04:50.951Z,20.67
2023-05-21T12:07:19.797Z,20.66
2023-05-21T12:09:50.728Z,20.60
2023-05-21T12:12:21.464Z,20.62
2023-05-21T12:14:51.930Z,20.66
2023-05-21T12:17:25.173Z,20.71
2023-05-21T12:19:53.747Z,20.83
2023-05-21T12:22:20.602Z,20.92
2023-05-21T12:24:48.820Z,21.01
2023-05-21T12:27:18.479Z,21.12
2023-05-21T12:29:46.817Z,21.16
2023-05-21T12:32:16.162Z,21.25
2023-05-21T12:34:46.196Z,21.38
2023-05-21T12:37:20.592Z,21.40
2023-05-21T12:39:47.992Z,21.31
2023-05-21T12:42:15.179Z,21.36
2023-05-21T12:44:46.932Z,21.46
2023-05-21T12:47:14.102Z,21.61
2023-05-21T12:49:43.906Z,21.72
2023-05-21T12:52:12.397Z,21.78
2023-05-21T12:54:42.401Z,21.78
2023-05-21T12:57:21.117Z,21.82
2023-05-21T12:59:57.732Z,21.82
2023-05-21T13:02:41.226Z,21.78
2023-05-21T13:05:17.735Z,21.95
2023-05-21T13:07:47.134Z,22.19
2023-05-21T13:10:16.135Z,22.28
2023-05-21T13:12:44.365Z,22.30
2023-05-21T13:15:11.585Z,22.30
2023-05-21T13:17:38.255Z,22.33
2023-05-21T13:20:12.356Z,22.47
2023-05-21T13:22:42.532Z,22.36
2023-05-21T13:25:16.007Z,22.45
2023-05-21T13:27:43.468Z,22.46
2023-05-21T13:30:13.891Z,22.45
2023-05-21T13:32:41.656Z,22.49
2023-05-21T13:35:08.944Z,22.69
2023-05-21T13:37:39.004Z,22.84
2023-05-21T13:40:07.739Z,22.83
2023-05-21T13:42:35.812Z,22.68
2023-05-21T13:45:02.842Z,22.58
2023-05-21T13:47:29.586Z,22.59
2023-05-21T13:49:56.414Z,22.72
2023-05-21T13:52:23.152Z,22.73
2023-05-21T13:54:49.962Z,22.82
2023-05-21T13:57:17.130Z,22.73
2023-05-21T13:59:44.725Z,22.62
2023-05-21T14:02:11.632Z,22.44
2023-05-21T14:04:39.572Z,22.58
2023-05-21T14:07:07.496Z,22.85
2023-05-21T14:09:34.454Z,22.94
2023-05-21T14:12:01.656Z,22.93
2023-05-21T14:14:28.532Z,23.03
2023-05-21T14:16:55.234Z,23.22
2023-05-21T14:19:22.224Z,23.57
2023-05-21T14:21:52.254Z,23.60
2023-05-21T14:24:19.938Z,23.47
2023-05-21T14:26:46.619Z,23.40
2023-05-21T14:29:13.283Z,23.18
2023-05-21T14:31:40.074Z,22.93
2023-05-21T14:34:09.571Z,22.78
2023-05-21T14:36:36.552Z,22.73
2023-05-21T14:39:03.889Z,22.73
2023-05-21T14:41:30.943Z,22.85
2023-05-21T14:43:57.732Z,22.86
2023-05-21T14:46:24.520Z,22.71
2023-05-21T14:48:51.236Z,22.57
2023-05-21T14:51:18.038Z,22.48
2023-05-21T14:53:45.141Z,22.47
2023-05-21T14:56:12.161Z,22.52
2023-05-21T14:58:39.326Z,22.49
2023-05-21T15:01:06.109Z,22.48
2023-05-21T15:03:32.981Z,22.40
2023-05-21T15:05:59.832Z,22.48
2023-05-21T15:08:26.516Z,22.74
2023-05-21T15:10:53.186Z,22.94
2023-05-21T15:13:21.453Z,23.18
2023-05-21T15:15:48.735Z,23.33
2023-05-21T15:18:15.911Z,23.55
2023-05-21T15:20:42.640Z,23.84
2023-05-21T15:23:16.652Z,24.03
2023-05-21T15:25:44.923Z,23.96
2023-05-21T15:28:14.988Z,24.10
2023-05-21T15:30:41.658Z,23.89
2023-05-21T15:33:08.998Z,23.77
2023-05-21T15:35:36.684Z,23.93
2023-05-21T15:38:03.777Z,24.11
2023-05-21T15:40:31.578Z,24.36
2023-05-21T15:42:58.247Z,24.42
2023-05-21T15:45:25.561Z,24.33
2023-05-21T15:47:52.313Z,24.22
2023-05-21T15:50:19.146Z,24.30
2023-05-21T15:52:45.787Z,24.32
2023-05-21T15:55:14.250Z,24.23
2023-05-21T15:57:41.122Z,24.21
2023-05-21T16:00:10.534Z,24.20
2023-05-21T16:02:37.597Z,24.33
2023-05-21T16:05:04.713Z,24.44
2023-05-21T16:07:31.475Z,24.56
2023-05-21T16:09:58.169Z,24.51
2023-05-21T16:12:26.364Z,24.37
2023-05-21T16:14:53.423Z,24.26
2023-05-21T16:17:20.121Z,24.28
2023-05-21T16:19:47.963Z,24.36
2023-05-21T16:22:14.794Z,24.41
2023-05-21T16:24:41.942Z,24.41
2023-05-21T16:27:08.614Z,24.32
2023-05-21T16:29:36.111Z,24.45
2023-05-21T16:32:03.985Z,24.38
2023-05-21T16:34:31.163Z,24.40
2023-05-21T16:36:58.700Z,24.44
2023-05-21T16:39:25.484Z,24.38
2023-05-21T16:41:52.689Z,24.35
2023-05-21T16:44:20.245Z,24.31
2023-05-21T16:46:46.933Z,24.37
2023-05-21T16:49:13.594Z,24.43
2023-05-21T16:51:40.334Z,24.58
2023-05-21T16:54:07.065Z,24.70
2023-05-21T16:56:34.145Z,24.55
2023-05-21T16:59:01.304Z,24.50
2023-05-21T17:01:28.025Z,24.42
2023-05-21T17:03:55.968Z,24.33
2023-05-21T17:06:23.601Z,24.15
2023-05-21T17:08:50.480Z,23.93
2023-05-21T17:11:18.046Z,23.73
2023-05-21T17:13:48.296Z,23.58
2023-05-21T17:16:15.329Z,23.57
2023-05-21T17:18:42.123Z,23.52
2023-05-21T17:21:09.981Z,23.47
2023-05-21T17:23:36.992Z,23.36
2023-05-21T17:26:04.057Z,23.38
2023-05-21T17:28:30.870Z,23.29
2023-05-21T17:30:58.113Z,23.19
2023-05-21T17:33:25.229Z,23.02
2023-05-21T17:35:51.873Z,22.81
2023-05-21T17:38:19.060Z,22.67
2023-05-21T17:40:45.872Z,22.57
2023-05-21T17:43:12.603Z,22.54
2023-05-21T17:45:39.611Z,22.52
2023-05-21T17:48:06.515Z,22.35
2023-05-21T17:50:34.643Z,22.12
2023-05-21T17:53:01.491Z,21.96
2023-05-21T17:55:28.176Z,21.95
2023-05-21T17:57:55.476Z,21.89
2023-05-21T18:00:22.267Z,21.92
2023-05-21T18:02:49.008Z,21.87
2023-05-21T18:05:16.086Z,21.83
2023-05-21T18:07:42.743Z,21.80
2023-05-21T18:10:09.681Z,21.75
2023-05-21T18:12:36.340Z,21.76
2023-05-21T18:15:03.208Z,21.70
2023-05-21T18:17:29.943Z,21.68
2023-05-21T18:19:56.659Z,21.57
2023-05-21T18:22:23.472Z,21.35
2023-05-21T18:24:50.622Z,21.22
2023-05-21T18:27:17.819Z,21.11
2023-05-21T18:29:44.458Z,20.92
2023-05-21T18:32:12.044Z,20.84
2023-05-21T18:34:38.812Z,20.80
2023-05-21T18:37:07.140Z,20.62
2023-05-21T18:39:33.784Z,20.59
2023-05-21T18:42:12.304Z,20.48
2023-05-21T18:44:40.456Z,20.33
2023-05-21T18:47:07.855Z,20.29
2023-05-21T18:49:36.068Z,20.11
2023-05-21T18:52:03.939Z,20.06
2023-05-21T18:54:30.855Z,19.98
2023-05-21T18:57:00.252Z,19.86
2023-05-21T18:59:28.436Z,19.67
2023-05-21T19:01:55.162Z,19.51
2023-05-21T19:04:21.997Z,19.44
2023-05-21T19:06:48.772Z,19.32
2023-05-21T19:09:15.495Z,19.12
2023-05-21T19:11:42.159Z,18.96
2023-05-21T19:14:08.921Z,18.78
2023-05-21T19:16:35.814Z,18.65
2023-05-21T19:19:03.370Z,18.52
2023-05-21T19:21:30.490Z,18.32
2023-05-21T19:23:57.360Z,18.24
2023-05-21T19:26:24.649Z,17.98
2023-05-21T19:28:53.789Z,17.77
2023-05-21T19:31:22.434Z,17.60
2023-05-21T19:33:49.288Z,17.43
2023-05-21T19:36:16.396Z,17.39
2023-05-21T19:38:50.397Z,17.05
2023-05-21T19:41:17.919Z,16.87
2023-05-21T19:43:45.288Z,16.75
2023-05-21T19:46:12.069Z,16.67
2023-05-21T19:48:38.977Z,16.53
2023-05-21T19:51:05.726Z,16.43
2023-05-21T19:53:32.405Z,16.22
2023-05-21T19:55:59.068Z,15.93
2023-05-21T19:58:29.722Z,15.81
2023-05-21T20:00:59.201Z,15.67
2023-05-21T20:03:26.853Z,15.60
2023-05-21T20:05:54.281Z,15.48
2023-05-21T20:08:21.325Z,15.35
2023-05-21T20:10:50.533Z,15.31
2023-05-21T20:13:18.824Z,15.21
2023-05-21T20:15:45.679Z,15.02
2023-05-21T20:18:12.990Z,14.74
2023-05-21T20:20:41.356Z,14.62
2023-05-21T20:23:08.602Z,14.59
2023-05-21T20:25:35.356Z,14.47
2023-05-21T20:28:03.398Z,14.37
2023-05-21T20:30:35.108Z,14.29
2023-05-21T20:33:03.026Z,14.23
2023-05-21T20:35:30.392Z,14.09
2023-05-21T20:37:57.192Z,13.99
2023-05-21T20:40:24.260Z,13.89
2023-05-21T20:42:53.588Z,13.78
2023-05-21T20:45:21.105Z,13.72
2023-05-21T20:47:49.911Z,13.66
2023-05-21T20:50:18.028Z,13.61
2023-05-21T20:52:47.160Z,13.48
2023-05-21T20:55:14.934Z,13.39
2023-05-21T20:57:42.303Z,13.27
2023-05-21T21:00:11.907Z,13.14
2023-05-21T21:02:38.975Z,13.04
2023-05-21T21:05:06.301Z,12.92
2023-05-21T21:07:34.509Z,12.84
2023-05-21T21:10:01.514Z,12.83
2023-05-21T21:12:28.521Z,12.76
2023-05-21T21:14:56.112Z,12.67
2023-05-21T21:17:23.240Z,12.59
2023-05-21T21:19:50.044Z,12.58
2023-05-21T21:22:18.345Z,12.46
2023-05-21T21:24:45.673Z,12.35
2023-05-21T21:27:12.589Z,12.15
2023-05-21T21:29:39.269Z,12.04
2023-05-21T21:32:06.575Z,11.93
2023-05-21T21:34:33.229Z,11.85
2023-05-21T21:37:00.245Z,11.84
2023-05-21T21:39:27.085Z,11.81
2023-05-21T21:41:54.032Z,11.76
2023-05-21T21:44:20.661Z,11.68
2023-05-21T21:46:47.869Z,11.57
2023-05-21T21:49:17.560Z,11.50
2023-05-21T21:51:45.148Z,11.51
2023-05-21T21:54:12.151Z,11.48
2023-05-21T21:56:38.870Z,11.43
2023-05-21T21:59:05.956Z,11.38
2023-05-21T22:01:32.810Z,11.41
2023-05-21T22:03:59.650Z,11.39
2023-05-21T22:06:27.671Z,11.36
2023-05-21T22:08:54.709Z,11.31
2023-05-21T22:11:22.035Z,11.30
2023-05-21T22:13:49.158Z,11.18
2023-05-21T22:16:15.975Z,11.08
2023-05-21T22:18:43.159Z,11.02
2023-05-21T22:21:10.979Z,11.03
2023-05-21T22:23:38.812Z,10.94
2023-05-21T22:26:06.303Z,10.86
2023-05-21T22:28:33.084Z,10.79
2023-05-21T22:31:00.148Z,10.71
2023-05-21T22:33:27.021Z,10.65
2023-05-21T22:35:54.661Z,10.60
2023-05-21T22:38:22.077Z,10.51
2023-05-21T22:40:49.049Z,10.50
2023-05-21T22:43:15.783Z,10.50
2023-05-21T22:45:43.000Z,10.42
2023-05-21T22:48:09.988Z,10.34
2023-05-21T22:50:38.606Z,10.26
2023-05-21T22:53:06.524Z,10.14
2023-05-21T22:55:33.235Z,10.07
2023-05-21T22:58:00.390Z,10.01
2023-05-21T23:00:27.466Z,9.93
2023-05-21T23:02:54.736Z,9.93
2023-05-21T23:05:22.051Z,9.90
2023-05-21T23:07:49.399Z,9.85
2023-05-21T23:10:16.212Z,9.75
2023-05-21T23:12:43.298Z,9.77
2023-05-21T23:15:10.826Z,9.83
2023-05-21T23:17:38.364Z,9.80
2023-05-21T23:20:07.271Z,9.74
2023-05-21T23:22:34.617Z,9.70
2023-05-21T23:25:01.606Z,9.70
2023-05-21T23:27:28.681Z,9.70
2023-05-21T23:29:56.096Z,9.61
2023-05-21T23:32:23.896Z,9.55
2023-05-21T23:34:50.780Z,9.57
2023-05-21T23:37:17.946Z,9.52
2023-05-21T23:39:48.539Z,9.54
2023-05-21T23:42:19.349Z,9.56
2023-05-21T23:44:46.397Z,9.54
2023-05-21T23:47:13.058Z,9.42
2023-05-21T23:49:39.834Z,9.35
2023-05-21T23:52:07.150Z,9.29
2023-05-21T23:54:33.886Z,9.28
2023-05-21T23:57:00.994Z,9.18
2023-05-21T23:59:27.717Z,9.08
